Calabash, North Carolina
Current Conditions -  °F | °C
As of 4:53 PM on Monday 20 Oct 2014 (Local Time) from KCRE Reporting Station
Clear Clear  
Wind Chill: 72°   Ceiling: Unl
Heat Index: 72°   Visibility: 10mi
Dew Point: 57°   Wind: 8mph
Humidity: 59%   Direction: 150°SSE
Pressure: 30.01"   Gusts: NA
Location:  33.89°N, 78.57°W
Report Text: KCRE 202053Z 15007KT 10SM CLR 22/14 A3001 RMK AO1 SLP163 T02220139 56019
Loading
Personal Weather Stations






























Interactive Weather Map
Tropical Storm Tracking
New forecast layout! Learn more

10-Day Weather Forecast

Advertisements
Track Severe Weather on mobile